Time,TemperatureF,DewpointF,PressureIn,WindDirection,WindDirectionDegrees,WindSpeedMPH,WindSpeedGustMPH,Humidity,HourlyPrecipIn,Conditions,Clouds,dailyrainin,SoftwareType,DateUTC
2013-05-14 00:01:00,37.3,33.0,30.18,SE,128,2.0,-999.0,83,-99.99,,,0.00,weatherlink.com 1.10,2013-05-14 07:01:00,
2013-05-14 00:16:00,37.2,32.0,30.18,ESE,120,3.0,-999.0,82,-99.99,,,0.00,weatherlink.com 1.10,2013-05-14 07:16:00,
2013-05-14 00:31:00,38.5,33.0,30.17,ENE,70,5.0,-999.0,81,-99.99,,,0.00,weatherlink.com 1.10,2013-05-14 07:31:00,
2013-05-14 00:46:00,37.3,33.0,30.17,SE,146,0.0,-999.0,83,-99.99,,,0.00,weatherlink.com 1.10,2013-05-14 07:46:00,
2013-05-14 01:01:00,37.6,33.0,30.17,East,97,0.0,-999.0,83,-99.99,,,0.00,weatherlink.com 1.10,2013-05-14 08:01:00,
2013-05-14 01:16:00,36.5,32.0,30.17,SE,146,3.0,-999.0,84,-99.99,,,0.00,weatherlink.com 1.10,2013-05-14 08:16:00,
2013-05-14 01:31:00,35.8,32.0,30.17,SSE,150,2.0,-999.0,87,-99.99,,,0.00,weatherlink.com 1.10,2013-05-14 08:31:00,
2013-05-14 01:46:00,35.5,31.0,30.16,SSW,200,0.0,-999.0,85,-99.99,,,0.00,weatherlink.com 1.10,2013-05-14 08:46:00,
2013-05-14 02:02:00,36.5,32.0,30.16,SSE,148,1.0,-999.0,84,-99.99,,,0.00,weatherlink.com 1.10,2013-05-14 09:02:00,
2013-05-14 02:16:00,36.0,32.0,30.16,SE,141,3.0,-999.0,84,-99.99,,,0.00,weatherlink.com 1.10,2013-05-14 09:16:00,
2013-05-14 02:32:00,34.5,31.0,30.16,South,172,2.0,-999.0,85,-99.99,,,0.00,weatherlink.com 1.10,2013-05-14 09:32:00,
2013-05-14 02:46:00,34.3,31.0,30.16,SSW,208,1.0,-999.0,86,-99.99,,,0.00,weatherlink.com 1.10,2013-05-14 09:46:00,
2013-05-14 03:02:00,34.5,31.0,30.16,SSE,147,1.0,-999.0,88,-99.99,,,0.00,weatherlink.com 1.10,2013-05-14 10:02:00,
2013-05-14 03:17:00,34.6,31.0,30.16,ESE,108,4.0,-999.0,87,-99.99,,,0.00,weatherlink.com 1.10,2013-05-14 10:17:00,
2013-05-14 03:32:00,33.8,30.0,30.17,SE,127,1.0,-999.0,86,-99.99,,,0.00,weatherlink.com 1.10,2013-05-14 10:32:00,
2013-05-14 03:47:00,33.1,30.0,30.16,SE,125,0.0,-999.0,89,-99.99,,,0.00,weatherlink.com 1.10,2013-05-14 10:47:00,
2013-05-14 04:02:00,32.5,30.0,30.16,East,93,4.0,-999.0,91,-99.99,,,0.00,weatherlink.com 1.10,2013-05-14 11:02:00,
2013-05-14 04:17:00,33.2,30.0,30.15,East,82,4.0,-999.0,89,-99.99,,,0.00,weatherlink.com 1.10,2013-05-14 11:17:00,
2013-05-14 04:32:00,33.7,31.0,30.15,SE,131,2.0,-999.0,91,-99.99,,,0.00,weatherlink.com 1.10,2013-05-14 11:32:00,
2013-05-14 04:47:00,32.4,30.0,30.14,SSE,153,0.0,-999.0,90,-99.99,,,0.00,weatherlink.com 1.10,2013-05-14 11:47:00,
2013-05-14 05:02:00,32.8,30.0,30.14,SE,138,1.0,-999.0,89,-99.99,,,0.00,weatherlink.com 1.10,2013-05-14 12:02:00,
2013-05-14 05:17:00,32.5,30.0,30.13,East,93,3.0,-999.0,90,-99.99,,,0.00,weatherlink.com 1.10,2013-05-14 12:17:00,
2013-05-14 05:32:00,32.4,30.0,30.14,East,95,3.0,-999.0,89,-99.99,,,0.00,weatherlink.com 1.10,2013-05-14 12:32:00,
2013-05-14 05:47:00,32.2,30.0,30.15,SE,139,2.0,-999.0,90,-99.99,,,0.00,weatherlink.com 1.10,2013-05-14 12:47:00,
2013-05-14 06:02:00,32.4,30.0,30.15,ESE,121,0.0,-999.0,91,-99.99,,,0.00,weatherlink.com 1.10,2013-05-14 13:02:00,
2013-05-14 06:17:00,33.1,30.0,30.15,ESE,120,1.0,-999.0,89,-99.99,,,0.00,weatherlink.com 1.10,2013-05-14 13:17:00,
2013-05-14 06:32:00,36.0,33.0,30.16,West,273,1.0,-999.0,87,-99.99,,,0.00,weatherlink.com 1.10,2013-05-14 13:32:00,
2013-05-14 06:47:00,37.2,33.0,30.16,SE,135,3.0,-999.0,85,-99.99,,,0.00,weatherlink.com 1.10,2013-05-14 13:47:00,
2013-05-14 07:02:00,39.0,35.0,30.16,ESE,107,0.0,-999.0,86,-99.99,,,0.00,weatherlink.com 1.10,2013-05-14 14:02:00,
2013-05-14 07:17:00,42.8,36.0,30.16,SE,141,0.0,-999.0,78,-99.99,,,0.00,weatherlink.com 1.10,2013-05-14 14:17:00,
2013-05-14 07:32:00,45.2,36.0,30.16,SE,142,2.0,-999.0,70,-99.99,,,0.00,weatherlink.com 1.10,2013-05-14 14:32:00,
2013-05-14 07:47:00,46.2,36.0,30.16,South,171,1.0,-999.0,68,-99.99,,,0.00,weatherlink.com 1.10,2013-05-14 14:47:00,
2013-05-14 08:02:00,47.9,37.0,30.16,SW,225,2.0,-999.0,65,-99.99,,,0.00,weatherlink.com 1.10,2013-05-14 15:02:00,
2013-05-14 08:17:00,48.4,35.0,30.16,East,88,1.0,-999.0,61,-99.99,,,0.00,weatherlink.com 1.10,2013-05-14 15:17:00,
2013-05-14 08:32:00,48.7,35.0,30.16,East,101,0.0,-999.0,60,-99.99,,,0.00,weatherlink.com 1.10,2013-05-14 15:32:00,
2013-05-14 08:47:00,47.9,35.0,30.16,NW,323,1.0,-999.0,62,-99.99,,,0.00,weatherlink.com 1.10,2013-05-14 15:47:00,
2013-05-14 09:02:00,48.5,35.0,30.16,WNW,301,4.0,-999.0,60,-99.99,,,0.00,weatherlink.com 1.10,2013-05-14 16:02:00,
2013-05-14 09:17:00,49.4,35.0,30.16,NE,35,1.0,-999.0,59,-99.99,,,0.00,weatherlink.com 1.10,2013-05-14 16:17:00,
2013-05-14 09:32:00,49.1,36.0,30.15,West,276,4.0,-999.0,60,-99.99,,,0.00,weatherlink.com 1.10,2013-05-14 16:32:00,
2013-05-14 09:47:00,49.6,36.0,30.14,WNW,288,3.0,-999.0,59,-99.99,,,0.00,weatherlink.com 1.10,2013-05-14 16:47:00,
2013-05-14 10:02:00,50.2,37.0,30.14,NE,55,1.0,-999.0,60,-99.99,,,0.00,weatherlink.com 1.10,2013-05-14 17:02:00,
2013-05-14 10:17:00,50.8,35.0,30.14,NW,326,3.0,-999.0,55,-99.99,,,0.00,weatherlink.com 1.10,2013-05-14 17:17:00,
2013-05-14 10:32:00,52.3,35.0,30.14,WNW,301,6.0,-999.0,52,-99.99,,,0.00,weatherlink.com 1.10,2013-05-14 17:32:00,
2013-05-14 10:47:00,53.0,34.0,30.14,NW,308,4.0,-999.0,48,-99.99,,,0.00,weatherlink.com 1.10,2013-05-14 17:47:00,
2013-05-14 11:02:00,53.4,34.0,30.14,NW,326,5.0,-999.0,48,-99.99,,,0.00,weatherlink.com 1.10,2013-05-14 18:02:00,
2013-05-14 11:17:00,53.0,33.0,30.14,North,1,7.0,-999.0,47,-99.99,,,0.00,weatherlink.com 1.10,2013-05-14 18:17:00,
2013-05-14 11:32:00,53.9,33.0,30.13,West,281,3.0,-999.0,45,-99.99,,,0.00,weatherlink.com 1.10,2013-05-14 18:32:00,
2013-05-14 11:47:00,54.8,34.0,30.13,WSW,256,4.0,-999.0,46,-99.99,,,0.00,weatherlink.com 1.10,2013-05-14 18:47:00,
2013-05-14 12:02:00,56.1,34.0,30.13,WSW,250,11.0,-999.0,43,-99.99,,,0.00,weatherlink.com 1.10,2013-05-14 19:02:00,
2013-05-14 12:17:00,55.8,32.0,30.13,NNW,328,5.0,-999.0,40,-99.99,,,0.00,weatherlink.com 1.10,2013-05-14 19:17:00,
2013-05-14 12:32:00,56.3,32.0,30.12,NW,316,1.0,-999.0,40,-99.99,,,0.00,weatherlink.com 1.10,2013-05-14 19:32:00,
2013-05-14 12:47:00,57.2,33.0,30.12,NNE,33,3.0,-999.0,40,-99.99,,,0.00,weatherlink.com 1.10,2013-05-14 19:47:00,
2013-05-14 13:02:00,57.2,31.0,30.11,West,275,2.0,-999.0,37,-99.99,,,0.00,weatherlink.com 1.10,2013-05-14 20:02:00,
2013-05-14 13:17:00,58.3,32.0,30.11,NE,45,4.0,-999.0,37,-99.99,,,0.00,weatherlink.com 1.10,2013-05-14 20:17:00,
2013-05-14 13:32:00,58.5,32.0,30.11,WNW,293,7.0,-999.0,37,-99.99,,,0.00,weatherlink.com 1.10,2013-05-14 20:32:00,
2013-05-14 13:47:00,59.1,31.0,30.10,NNE,29,4.0,-999.0,34,-99.99,,,0.00,weatherlink.com 1.10,2013-05-14 20:47:00,
2013-05-14 14:02:00,59.3,31.0,30.10,West,276,1.0,-999.0,34,-99.99,,,0.00,weatherlink.com 1.10,2013-05-14 21:02:00,
2013-05-14 14:17:00,59.8,31.0,30.10,WNW,297,5.0,-999.0,34,-99.99,,,0.00,weatherlink.com 1.10,2013-05-14 21:17:00,
2013-05-14 14:32:00,60.0,31.0,30.10,NNW,335,2.0,-999.0,33,-99.99,,,0.00,weatherlink.com 1.10,2013-05-14 21:32:00,
2013-05-14 15:02:00,60.9,33.0,30.09,NW,317,4.0,-999.0,35,-99.99,,,0.00,weatherlink.com 1.10,2013-05-14 22:02:00,
2013-05-14 15:17:00,60.9,31.0,30.08,WNW,287,8.0,-999.0,33,-99.99,,,0.00,weatherlink.com 1.10,2013-05-14 22:17:00,
2013-05-14 15:32:00,60.9,33.0,30.09,NW,311,8.0,-999.0,35,-99.99,,,0.00,weatherlink.com 1.10,2013-05-14 22:32:00,
2013-05-14 15:47:00,61.3,33.0,30.08,NNW,333,3.0,-999.0,34,-99.99,,,0.00,weatherlink.com 1.10,2013-05-14 22:47:00,
2013-05-14 16:02:00,60.4,31.0,30.08,NNE,27,1.0,-999.0,33,-99.99,,,0.00,weatherlink.com 1.10,2013-05-14 23:02:00,
2013-05-14 16:17:00,60.9,33.0,30.08,NNW,337,6.0,-999.0,35,-99.99,,,0.00,weatherlink.com 1.10,2013-05-14 23:17:00,
2013-05-14 16:32:00,61.3,33.0,30.07,NNW,327,4.0,-999.0,34,-99.99,,,0.00,weatherlink.com 1.10,2013-05-14 23:32:00,
2013-05-14 16:47:00,61.4,33.0,30.08,West,281,1.0,-999.0,34,-99.99,,,0.00,weatherlink.com 1.10,2013-05-14 23:47:00,
2013-05-14 17:02:00,61.6,34.0,30.08,NNE,29,2.0,-999.0,35,-99.99,,,0.00,weatherlink.com 1.10,2013-05-15 00:02:00,
2013-05-14 17:17:00,61.4,33.0,30.07,NW,307,4.0,-999.0,35,-99.99,,,0.00,weatherlink.com 1.10,2013-05-15 00:17:00,
2013-05-14 17:32:00,61.7,34.0,30.07,NW,322,7.0,-999.0,36,-99.99,,,0.00,weatherlink.com 1.10,2013-05-15 00:32:00,
2013-05-14 17:47:00,61.6,34.0,30.07,West,267,6.0,-999.0,36,-99.99,,,0.00,weatherlink.com 1.10,2013-05-15 00:47:00,
2013-05-14 18:02:00,60.9,34.0,30.07,North,1,6.0,-999.0,37,-99.99,,,0.00,weatherlink.com 1.10,2013-05-15 01:02:00,
2013-05-14 18:17:00,60.0,33.0,30.07,NW,311,5.0,-999.0,36,-99.99,,,0.00,weatherlink.com 1.10,2013-05-15 01:17:00,
2013-05-14 18:32:00,60.2,33.0,30.07,NW,313,6.0,-999.0,36,-99.99,,,0.00,weatherlink.com 1.10,2013-05-15 01:32:00,
2013-05-14 18:47:00,59.2,32.0,30.07,WNW,301,4.0,-999.0,36,-99.99,,,0.00,weatherlink.com 1.10,2013-05-15 01:47:00,
2013-05-14 19:02:00,60.1,33.0,30.07,NNW,337,4.0,-999.0,36,-99.99,,,0.00,weatherlink.com 1.10,2013-05-15 02:02:00,
2013-05-14 19:17:00,59.2,33.0,30.06,NNW,348,6.0,-999.0,37,-99.99,,,0.00,weatherlink.com 1.10,2013-05-15 02:17:00,
2013-05-14 19:32:00,58.5,31.0,30.07,NNW,348,8.0,-999.0,36,-99.99,,,0.00,weatherlink.com 1.10,2013-05-15 02:32:00,
2013-05-14 19:47:00,58.0,32.0,30.07,NNE,21,12.0,-999.0,38,-99.99,,,0.00,weatherlink.com 1.10,2013-05-15 02:47:00,
2013-05-14 20:02:00,56.3,33.0,30.07,North,5,6.0,-999.0,41,-99.99,,,0.00,weatherlink.com 1.10,2013-05-15 03:02:00,
2013-05-14 20:17:00,54.6,33.0,30.07,North,9,8.0,-999.0,44,-99.99,,,0.00,weatherlink.com 1.10,2013-05-15 03:17:00,
2013-05-14 20:32:00,53.1,33.0,30.08,NNE,18,4.0,-999.0,46,-99.99,,,0.00,weatherlink.com 1.10,2013-05-15 03:32:00,
2013-05-14 20:47:00,51.9,33.0,30.08,NNW,330,2.0,-999.0,48,-99.99,,,0.00,weatherlink.com 1.10,2013-05-15 03:47:00,
2013-05-14 21:02:00,50.2,32.0,30.09,NNW,346,2.0,-999.0,50,-99.99,,,0.00,weatherlink.com 1.10,2013-05-15 04:02:00,
2013-05-14 21:17:00,48.7,32.0,30.10,NE,42,3.0,-999.0,53,-99.99,,,0.00,weatherlink.com 1.10,2013-05-15 04:17:00,
2013-05-14 21:32:00,49.8,32.0,30.10,East,89,0.0,-999.0,51,-99.99,,,0.00,weatherlink.com 1.10,2013-05-15 04:32:00,
2013-05-14 21:47:00,48.2,32.0,30.10,NNW,343,0.0,-999.0,54,-99.99,,,0.00,weatherlink.com 1.10,2013-05-15 04:47:00,
2013-05-14 22:02:00,46.2,34.0,30.10,SSE,150,1.0,-999.0,62,-99.99,,,0.00,weatherlink.com 1.10,2013-05-15 05:02:00,
2013-05-14 22:17:00,46.8,33.0,30.10,East,84,3.0,-999.0,59,-99.99,,,0.00,weatherlink.com 1.10,2013-05-15 05:17:00,
2013-05-14 22:32:00,43.5,33.0,30.11,SE,139,0.0,-999.0,67,-99.99,,,0.00,weatherlink.com 1.10,2013-05-15 05:32:00,
2013-05-14 22:47:00,42.6,32.0,30.11,South,174,2.0,-999.0,67,-99.99,,,0.00,weatherlink.com 1.10,2013-05-15 05:47:00,
2013-05-14 23:02:00,42.6,32.0,30.10,South,169,0.0,-999.0,67,-99.99,,,0.00,weatherlink.com 1.10,2013-05-15 06:02:00,
2013-05-14 23:17:00,42.7,34.0,30.10,ESE,117,2.0,-999.0,70,-99.99,,,0.00,weatherlink.com 1.10,2013-05-15 06:17:00,
2013-05-14 23:32:00,41.8,34.0,30.10,SSE,150,3.0,-999.0,73,-99.99,,,0.00,weatherlink.com 1.10,2013-05-15 06:32:00,
2013-05-14 23:47:00,41.5,32.0,30.09,SSE,150,1.0,-999.0,69,-99.99,,,0.00,weatherlink.com 1.10,2013-05-15 06:47:00,